Carnival Pride — H3VU — position and weather

sailwx.info

Track history (hours):
 
Tides and Currents Weather Stations Pressure Air Temp Water Temp Dewpoint Dewpoint Depression Visibility Wind Speed Wind Dir Waves Ship Positions

Carnival Pride

Operator: Carnival Cruise Lines

Last reported at 2014-Jul-28 07:25 UTC. Time now 2014-Jul-28 16:22 UTC.
Position N 36°43' W 075°42'.

Type: Ship. MMSI: 354215000.

Date/timePositionNaut miles runAvg speedWind from/ knotsBaromVisibWave heightAir tempDewpointWater temp
2014-Jul-28 07:25N 36°43' W 075°42'1618.3
2014-Jul-28 06:32N 36°54' W 075°56'1515.2
2014-Jul-28 05:32N 37°06' W 076°07'1816.2
2014-Jul-28 04:26N 37°24' W 076°05'1515.2
2014-Jul-28 03:27N 37°39' W 076°08'7118.1
2014-Jul-27 23:31N 38°49' W 076°25'1816.3
2014-Jul-27 22:23N 39°07' W 076°24'1012.1
2014-Jul-27 21:33N 39°14' W 076°33'3 3.0
2014-Jul-27 20:32N 39°16' W 076°36'0 0.0
2014-Jul-27 19:31N 39°16' W 076°36'0 0.0
2014-Jul-27 18:28N 39°16' W 076°36'0 0.0
2014-Jul-27 17:31N 39°16' W 076°36'0 0.0
2014-Jul-27 16:27N 39°16' W 076°36'0 0.0
2014-Jul-27 15:33N 39°16' W 076°36'0 0.0
2014-Jul-27 14:32N 39°16' W 076°36'0 0.0
2014-Jul-27 13:32N 39°16' W 076°36'0 0.3
2014-Jul-27 12:33N 39°16' W 076°36'10 9.8
2014-Jul-27 11:33N 39°10' W 076°25'1413.8
2014-Jul-27 10:34N 38°56' W 076°23'1717.3
2014-Jul-27 09:33N 38°39' W 076°25'7517.4
2014-Jul-27 05:16N 37°26' W 076°05'1419.0
2014-Jul-27 04:31N 37°12' W 076°09'1717.5
2014-Jul-27 03:33N 36°57' W 075°59'15617.4
2014-Jul-26 18:33N 34°21' W 076°07'46220.9
2014-Jul-25 20:27N 27°10' W 079°20'2222.7
2014-Jul-25 19:29N 26°49' W 079°11'  
2014-Jul-21 07:33N 36°50' W 075°48'1313.5
2014-Jul-21 06:33N 36°59' W 076°00'1515.1
2014-Jul-21 05:33N 37°13' W 076°09'8817.2
2014-Jul-21 00:27N 38°39' W 076°25'1718.6
2014-Jul-20 23:34N 38°56' W 076°23'1414.1
2014-Jul-20 22:33N 39°10' W 076°26'9 9.4
2014-Jul-20 21:34N 39°15' W 076°36'1 0.5
2014-Jul-20 20:33N 39°16' W 076°36'0 0.0
2014-Jul-20 19:33N 39°16' W 076°36'0 0.0
2014-Jul-20 18:33N 39°16' W 076°36'0 0.0
2014-Jul-20 17:32N 39°16' W 076°36'0 0.0
2014-Jul-20 16:32N 39°16' W 076°36'0 0.0
2014-Jul-20 15:31N 39°16' W 076°36'0 0.0
2014-Jul-20 14:28N 39°16' W 076°36'0 0.0
2014-Jul-20 13:33N 39°16' W 076°36'3 3.1
2014-Jul-20 12:33N 39°14' W 076°33'1212.0
2014-Jul-20 11:34N 39°04' W 076°24'1817.8
2014-Jul-20 10:34N 38°47' W 076°25'8917.3
2014-Jul-20 05:24N 37°19' W 076°06'1416.0
2014-Jul-20 04:32N 37°05' W 076°06'1514.8
2014-Jul-20 03:31N 36°54' W 075°53'40919.0
2014-Jul-19 06:00N 30°42' W 079°18'19822.5 090 / 91018.0 5.4 28.024.028.0
2014-Jul-18 21:09N 27°24' W 079°27'  
Track history (hours):
 
Tides and Currents Weather Stations Pressure Air Temp Water Temp Dewpoint Dewpoint Depression Visibility Wind Speed Wind Dir Waves Ship Positions

Carnival Pride

Operator: Carnival Cruise Lines

Last reported at 2014-Jul-28 07:25 UTC. Time now 2014-Jul-28 16:22 UTC.
Position N 36°43' W 075°42'.

Type: Ship. MMSI: 354215000.

Date/timePositionNaut miles runAvg speedWind from/ knotsBaromVisibWave heightAir tempDewpointWater temp
2014-Jul-28 07:25N 36°43' W 075°42'1618.3
2014-Jul-28 06:32N 36°54' W 075°56'1515.2
2014-Jul-28 05:32N 37°06' W 076°07'1816.2
2014-Jul-28 04:26N 37°24' W 076°05'1515.2
2014-Jul-28 03:27N 37°39' W 076°08'7118.1
2014-Jul-27 23:31N 38°49' W 076°25'1816.3
2014-Jul-27 22:23N 39°07' W 076°24'1012.1
2014-Jul-27 21:33N 39°14' W 076°33'3 3.0
2014-Jul-27 20:32N 39°16' W 076°36'0 0.0
2014-Jul-27 19:31N 39°16' W 076°36'0 0.0
2014-Jul-27 18:28N 39°16' W 076°36'0 0.0
2014-Jul-27 17:31N 39°16' W 076°36'0 0.0
2014-Jul-27 16:27N 39°16' W 076°36'0 0.0
2014-Jul-27 15:33N 39°16' W 076°36'0 0.0
2014-Jul-27 14:32N 39°16' W 076°36'0 0.0
2014-Jul-27 13:32N 39°16' W 076°36'0 0.3
2014-Jul-27 12:33N 39°16' W 076°36'10 9.8
2014-Jul-27 11:33N 39°10' W 076°25'1413.8
2014-Jul-27 10:34N 38°56' W 076°23'1717.3
2014-Jul-27 09:33N 38°39' W 076°25'7517.4
2014-Jul-27 05:16N 37°26' W 076°05'1419.0
2014-Jul-27 04:31N 37°12' W 076°09'1717.5
2014-Jul-27 03:33N 36°57' W 075°59'15617.4
2014-Jul-26 18:33N 34°21' W 076°07'46220.9
2014-Jul-25 20:27N 27°10' W 079°20'2222.7
2014-Jul-25 19:29N 26°49' W 079°11'  
2014-Jul-21 07:33N 36°50' W 075°48'1313.5
2014-Jul-21 06:33N 36°59' W 076°00'1515.1
2014-Jul-21 05:33N 37°13' W 076°09'8817.2
2014-Jul-21 00:27N 38°39' W 076°25'1718.6
2014-Jul-20 23:34N 38°56' W 076°23'1414.1
2014-Jul-20 22:33N 39°10' W 076°26'9 9.4
2014-Jul-20 21:34N 39°15' W 076°36'1 0.5
2014-Jul-20 20:33N 39°16' W 076°36'0 0.0
2014-Jul-20 19:33N 39°16' W 076°36'0 0.0
2014-Jul-20 18:33N 39°16' W 076°36'0 0.0
2014-Jul-20 17:32N 39°16' W 076°36'0 0.0
2014-Jul-20 16:32N 39°16' W 076°36'0 0.0
2014-Jul-20 15:31N 39°16' W 076°36'0 0.0
2014-Jul-20 14:28N 39°16' W 076°36'0 0.0
2014-Jul-20 13:33N 39°16' W 076°36'3 3.1
2014-Jul-20 12:33N 39°14' W 076°33'1212.0
2014-Jul-20 11:34N 39°04' W 076°24'1817.8
2014-Jul-20 10:34N 38°47' W 076°25'8917.3
2014-Jul-20 05:24N 37°19' W 076°06'1416.0
2014-Jul-20 04:32N 37°05' W 076°06'1514.8
2014-Jul-20 03:31N 36°54' W 075°53'40919.0
2014-Jul-19 06:00N 30°42' W 079°18'19822.5 090 / 91018.0 5.4 28.024.028.0
2014-Jul-18 21:09N 27°24' W 079°27'  

Dump ship's entire track history